sensor_id;sensor_type;location;lat;lon;timestamp;temperature;humidity
23991;DHT22;12205;50.600;4.608;2023-09-19T00:00:00;15.60;99.90
23991;DHT22;12205;50.600;4.608;2023-09-19T00:02:30;15.60;99.90
23991;DHT22;12205;50.600;4.608;2023-09-19T00:04:58;15.60;99.90
23991;DHT22;12205;50.600;4.608;2023-09-19T00:07:29;15.60;99.90
23991;DHT22;12205;50.600;4.608;2023-09-19T00:09:56;15.60;99.90
23991;DHT22;12205;50.600;4.608;2023-09-19T00:12:23;15.50;99.90
23991;DHT22;12205;50.600;4.608;2023-09-19T00:14:51;15.50;99.90
23991;DHT22;12205;50.600;4.608;2023-09-19T00:17:19;15.50;99.90
23991;DHT22;12205;50.600;4.608;2023-09-19T00:19:47;15.50;99.90
23991;DHT22;12205;50.600;4.608;2023-09-19T00:22:17;15.50;99.90
23991;DHT22;12205;50.600;4.608;2023-09-19T00:24:44;15.50;99.90
23991;DHT22;12205;50.600;4.608;2023-09-19T00:27:11;15.50;99.90
23991;DHT22;12205;50.600;4.608;2023-09-19T00:29:38;15.50;99.90
23991;DHT22;12205;50.600;4.608;2023-09-19T00:32:07;15.50;99.90
23991;DHT22;12205;50.600;4.608;2023-09-19T00:34:35;15.50;99.90
23991;DHT22;12205;50.600;4.608;2023-09-19T00:37:02;15.50;99.90
23991;DHT22;12205;50.600;4.608;2023-09-19T00:39:30;15.50;99.90
23991;DHT22;12205;50.600;4.608;2023-09-19T00:41:57;15.50;99.90
23991;DHT22;12205;50.600;4.608;2023-09-19T00:44:24;15.50;99.90
23991;DHT22;12205;50.600;4.608;2023-09-19T00:46:52;15.50;99.90
23991;DHT22;12205;50.600;4.608;2023-09-19T00:49:20;15.50;99.90
23991;DHT22;12205;50.600;4.608;2023-09-19T00:51:49;15.40;99.90
23991;DHT22;12205;50.600;4.608;2023-09-19T00:54:18;15.40;99.90
23991;DHT22;12205;50.600;4.608;2023-09-19T00:56:45;15.50;99.90
23991;DHT22;12205;50.600;4.608;2023-09-19T00:59:14;15.40;99.90
23991;DHT22;12205;50.600;4.608;2023-09-19T01:01:41;15.40;99.90
23991;DHT22;12205;50.600;4.608;2023-09-19T01:04:08;15.40;99.90
23991;DHT22;12205;50.600;4.608;2023-09-19T01:06:35;15.40;99.90
23991;DHT22;12205;50.600;4.608;2023-09-19T01:09:04;15.40;99.90
23991;DHT22;12205;50.600;4.608;2023-09-19T01:11:35;15.40;99.90
23991;DHT22;12205;50.600;4.608;2023-09-19T01:14:14;15.40;99.90
23991;DHT22;12205;50.600;4.608;2023-09-19T01:16:50;15.30;99.90
23991;DHT22;12205;50.600;4.608;2023-09-19T01:22:36;15.30;99.90
23991;DHT22;12205;50.600;4.608;2023-09-19T01:25:39;15.30;99.90
23991;DHT22;12205;50.600;4.608;2023-09-19T01:28:20;15.30;99.90
23991;DHT22;12205;50.600;4.608;2023-09-19T01:30:53;15.30;99.90
23991;DHT22;12205;50.600;4.608;2023-09-19T01:33:23;15.30;99.90
23991;DHT22;12205;50.600;4.608;2023-09-19T01:35:49;15.30;99.90
23991;DHT22;12205;50.600;4.608;2023-09-19T01:38:16;15.20;99.90
23991;DHT22;12205;50.600;4.608;2023-09-19T01:40:55;15.20;99.90
23991;DHT22;12205;50.600;4.608;2023-09-19T01:43:30;15.20;99.90
23991;DHT22;12205;50.600;4.608;2023-09-19T01:46:05;15.10;99.90
23991;DHT22;12205;50.600;4.608;2023-09-19T01:48:40;15.20;99.90
23991;DHT22;12205;50.600;4.608;2023-09-19T01:51:10;15.10;99.90
23991;DHT22;12205;50.600;4.608;2023-09-19T01:53:43;15.10;99.90
23991;DHT22;12205;50.600;4.608;2023-09-19T01:56:19;15.00;99.90
23991;DHT22;12205;50.600;4.608;2023-09-19T01:58:51;15.00;99.90
23991;DHT22;12205;50.600;4.608;2023-09-19T02:01:24;15.00;99.90
23991;DHT22;12205;50.600;4.608;2023-09-19T02:03:52;15.00;99.90
23991;DHT22;12205;50.600;4.608;2023-09-19T02:06:19;14.90;99.90
23991;DHT22;12205;50.600;4.608;2023-09-19T02:08:46;14.80;99.90
23991;DHT22;12205;50.600;4.608;2023-09-19T02:11:14;14.90;99.90
23991;DHT22;12205;50.600;4.608;2023-09-19T02:13:42;14.80;99.90
23991;DHT22;12205;50.600;4.608;2023-09-19T02:16:09;14.80;99.90
23991;DHT22;12205;50.600;4.608;2023-09-19T02:18:38;14.80;99.90
23991;DHT22;12205;50.600;4.608;2023-09-19T02:21:05;14.80;99.90
23991;DHT22;12205;50.600;4.608;2023-09-19T02:23:33;14.80;99.90
23991;DHT22;12205;50.600;4.608;2023-09-19T02:26:00;14.80;99.90
23991;DHT22;12205;50.600;4.608;2023-09-19T02:28:27;14.80;99.90
23991;DHT22;12205;50.600;4.608;2023-09-19T02:30:55;14.80;99.90
23991;DHT22;12205;50.600;4.608;2023-09-19T02:33:22;14.80;99.90
23991;DHT22;12205;50.600;4.608;2023-09-19T02:35:56;14.80;99.90
23991;DHT22;12205;50.600;4.608;2023-09-19T02:38:23;14.90;99.90
23991;DHT22;12205;50.600;4.608;2023-09-19T02:40:52;14.90;99.90
23991;DHT22;12205;50.600;4.608;2023-09-19T02:43:20;14.90;99.90
23991;DHT22;12205;50.600;4.608;2023-09-19T02:45:48;15.00;99.90
23991;DHT22;12205;50.600;4.608;2023-09-19T02:48:16;15.00;99.90
23991;DHT22;12205;50.600;4.608;2023-09-19T02:50:44;15.00;99.90
23991;DHT22;12205;50.600;4.608;2023-09-19T02:53:13;15.00;99.90
23991;DHT22;12205;50.600;4.608;2023-09-19T02:55:40;15.00;99.90
23991;DHT22;12205;50.600;4.608;2023-09-19T02:58:07;15.00;99.90
23991;DHT22;12205;50.600;4.608;2023-09-19T03:00:36;15.10;99.90
23991;DHT22;12205;50.600;4.608;2023-09-19T03:03:04;15.00;99.90
23991;DHT22;12205;50.600;4.608;2023-09-19T03:05:32;15.10;99.90
23991;DHT22;12205;50.600;4.608;2023-09-19T03:07:59;15.00;99.90
23991;DHT22;12205;50.600;4.608;2023-09-19T03:10:28;15.10;99.90
23991;DHT22;12205;50.600;4.608;2023-09-19T03:12:58;15.10;99.90
23991;DHT22;12205;50.600;4.608;2023-09-19T03:15:26;15.10;99.90
23991;DHT22;12205;50.600;4.608;2023-09-19T03:17:53;15.10;99.90
23991;DHT22;12205;50.600;4.608;2023-09-19T03:20:22;15.10;99.90
23991;DHT22;12205;50.600;4.608;2023-09-19T03:22:49;15.10;99.90
23991;DHT22;12205;50.600;4.608;2023-09-19T03:25:17;15.00;99.90
23991;DHT22;12205;50.600;4.608;2023-09-19T03:27:49;14.90;99.90
23991;DHT22;12205;50.600;4.608;2023-09-19T03:30:16;14.90;99.90
23991;DHT22;12205;50.600;4.608;2023-09-19T03:32:45;14.90;99.90
23991;DHT22;12205;50.600;4.608;2023-09-19T03:35:13;14.90;99.90
23991;DHT22;12205;50.600;4.608;2023-09-19T03:37:41;14.80;99.90
23991;DHT22;12205;50.600;4.608;2023-09-19T03:40:09;14.80;99.90
23991;DHT22;12205;50.600;4.608;2023-09-19T03:42:38;14.80;99.90
23991;DHT22;12205;50.600;4.608;2023-09-19T03:45:09;14.80;99.90
23991;DHT22;12205;50.600;4.608;2023-09-19T03:47:38;14.70;99.90
23991;DHT22;12205;50.600;4.608;2023-09-19T03:50:07;14.70;99.90
23991;DHT22;12205;50.600;4.608;2023-09-19T03:52:36;14.70;99.90
23991;DHT22;12205;50.600;4.608;2023-09-19T03:55:04;14.70;99.90
23991;DHT22;12205;50.600;4.608;2023-09-19T03:57:31;14.70;99.90
23991;DHT22;12205;50.600;4.608;2023-09-19T03:59:58;14.60;99.90
23991;DHT22;12205;50.600;4.608;2023-09-19T04:02:26;14.70;99.90
23991;DHT22;12205;50.600;4.608;2023-09-19T04:04:59;14.70;99.90
23991;DHT22;12205;50.600;4.608;2023-09-19T04:07:25;14.70;99.90
23991;DHT22;12205;50.600;4.608;2023-09-19T04:09:54;14.70;99.90
23991;DHT22;12205;50.600;4.608;2023-09-19T04:12:21;14.70;99.90
23991;DHT22;12205;50.600;4.608;2023-09-19T04:14:48;14.70;99.90
23991;DHT22;12205;50.600;4.608;2023-09-19T04:17:16;14.60;99.90
23991;DHT22;12205;50.600;4.608;2023-09-19T04:19:45;14.60;99.90
23991;DHT22;12205;50.600;4.608;2023-09-19T04:22:12;14.50;99.90
23991;DHT22;12205;50.600;4.608;2023-09-19T04:24:39;14.50;99.90
23991;DHT22;12205;50.600;4.608;2023-09-19T04:27:06;14.50;99.90
23991;DHT22;12205;50.600;4.608;2023-09-19T04:29:33;14.50;99.90
23991;DHT22;12205;50.600;4.608;2023-09-19T04:32:00;14.50;99.90
23991;DHT22;12205;50.600;4.608;2023-09-19T04:34:30;14.40;99.90
23991;DHT22;12205;50.600;4.608;2023-09-19T04:36:58;14.40;99.90
23991;DHT22;12205;50.600;4.608;2023-09-19T04:39:27;14.40;99.90
23991;DHT22;12205;50.600;4.608;2023-09-19T04:41:54;14.40;99.90
23991;DHT22;12205;50.600;4.608;2023-09-19T04:44:22;14.30;99.90
23991;DHT22;12205;50.600;4.608;2023-09-19T04:46:49;14.30;99.90
23991;DHT22;12205;50.600;4.608;2023-09-19T04:49:16;14.30;99.90
23991;DHT22;12205;50.600;4.608;2023-09-19T04:51:43;14.40;99.90
23991;DHT22;12205;50.600;4.608;2023-09-19T04:54:13;14.40;99.90
23991;DHT22;12205;50.600;4.608;2023-09-19T04:56:40;14.40;99.90
23991;DHT22;12205;50.600;4.608;2023-09-19T04:59:07;14.40;99.90
23991;DHT22;12205;50.600;4.608;2023-09-19T05:01:36;14.40;99.90
23991;DHT22;12205;50.600;4.608;2023-09-19T05:04:03;14.40;99.90
23991;DHT22;12205;50.600;4.608;2023-09-19T05:06:30;14.40;99.90
23991;DHT22;12205;50.600;4.608;2023-09-19T05:09:01;14.30;99.90
23991;DHT22;12205;50.600;4.608;2023-09-19T05:11:32;14.30;99.90
23991;DHT22;12205;50.600;4.608;2023-09-19T05:13:59;14.30;99.90
23991;DHT22;12205;50.600;4.608;2023-09-19T05:16:29;14.30;99.90
23991;DHT22;12205;50.600;4.608;2023-09-19T05:18:57;14.30;99.90
23991;DHT22;12205;50.600;4.608;2023-09-19T05:21:23;14.30;99.90
23991;DHT22;12205;50.600;4.608;2023-09-19T05:23:51;14.30;99.90
23991;DHT22;12205;50.600;4.608;2023-09-19T05:26:19;14.30;99.90
23991;DHT22;12205;50.600;4.608;2023-09-19T05:28:47;14.30;99.90
23991;DHT22;12205;50.600;4.608;2023-09-19T05:31:14;14.40;99.90
23991;DHT22;12205;50.600;4.608;2023-09-19T05:33:42;14.40;99.90
23991;DHT22;12205;50.600;4.608;2023-09-19T05:36:09;14.40;99.90
23991;DHT22;12205;50.600;4.608;2023-09-19T05:38:37;14.30;99.90
23991;DHT22;12205;50.600;4.608;2023-09-19T05:41:06;14.30;99.90
23991;DHT22;12205;50.600;4.608;2023-09-19T05:43:33;14.30;99.90
23991;DHT22;12205;50.600;4.608;2023-09-19T05:46:04;14.40;99.90
23991;DHT22;12205;50.600;4.608;2023-09-19T05:48:31;14.30;99.90
23991;DHT22;12205;50.600;4.608;2023-09-19T05:50:58;14.30;99.90
23991;DHT22;12205;50.600;4.608;2023-09-19T05:53:27;14.30;99.90
23991;DHT22;12205;50.600;4.608;2023-09-19T05:55:54;14.30;99.90
23991;DHT22;12205;50.600;4.608;2023-09-19T05:58:21;14.40;99.90
23991;DHT22;12205;50.600;4.608;2023-09-19T06:00:48;14.40;99.90
23991;DHT22;12205;50.600;4.608;2023-09-19T06:03:16;14.40;99.90
23991;DHT22;12205;50.600;4.608;2023-09-19T06:05:44;14.40;99.90
23991;DHT22;12205;50.600;4.608;2023-09-19T06:08:11;14.40;99.90
23991;DHT22;12205;50.600;4.608;2023-09-19T06:10:38;14.50;99.90
23991;DHT22;12205;50.600;4.608;2023-09-19T06:13:06;14.50;99.90
23991;DHT22;12205;50.600;4.608;2023-09-19T06:15:35;14.40;99.90
23991;DHT22;12205;50.600;4.608;2023-09-19T06:18:03;14.50;99.90
23991;DHT22;12205;50.600;4.608;2023-09-19T06:20:32;14.50;99.90
23991;DHT22;12205;50.600;4.608;2023-09-19T06:22:58;14.50;99.90
23991;DHT22;12205;50.600;4.608;2023-09-19T06:25:27;14.50;99.90
23991;DHT22;12205;50.600;4.608;2023-09-19T06:27:54;14.60;99.90
23991;DHT22;12205;50.600;4.608;2023-09-19T06:30:22;14.60;99.90
23991;DHT22;12205;50.600;4.608;2023-09-19T06:32:49;14.60;99.90
23991;DHT22;12205;50.600;4.608;2023-09-19T06:35:21;14.60;99.90
23991;DHT22;12205;50.600;4.608;2023-09-19T06:37:50;14.60;99.90
23991;DHT22;12205;50.600;4.608;2023-09-19T06:40:17;14.60;99.90
23991;DHT22;12205;50.600;4.608;2023-09-19T06:42:45;14.60;99.90
23991;DHT22;12205;50.600;4.608;2023-09-19T06:45:14;14.70;99.90
23991;DHT22;12205;50.600;4.608;2023-09-19T06:47:44;14.80;99.90
23991;DHT22;12205;50.600;4.608;2023-09-19T06:50:11;14.80;99.90
23991;DHT22;12205;50.600;4.608;2023-09-19T06:52:40;14.80;99.90
23991;DHT22;12205;50.600;4.608;2023-09-19T06:55:09;14.90;99.90
23991;DHT22;12205;50.600;4.608;2023-09-19T06:57:38;14.90;99.90
23991;DHT22;12205;50.600;4.608;2023-09-19T07:00:07;14.90;99.90
23991;DHT22;12205;50.600;4.608;2023-09-19T07:02:40;15.00;99.90
23991;DHT22;12205;50.600;4.608;2023-09-19T07:05:08;15.00;99.90
23991;DHT22;12205;50.600;4.608;2023-09-19T07:07:35;15.00;99.90
23991;DHT22;12205;50.600;4.608;2023-09-19T07:10:02;15.00;99.90
23991;DHT22;12205;50.600;4.608;2023-09-19T07:12:32;15.00;99.90
23991;DHT22;12205;50.600;4.608;2023-09-19T07:14:59;15.10;99.90
23991;DHT22;12205;50.600;4.608;2023-09-19T07:17:26;15.10;99.90
23991;DHT22;12205;50.600;4.608;2023-09-19T07:19:53;15.20;99.90
23991;DHT22;12205;50.600;4.608;2023-09-19T07:22:20;15.20;99.90
23991;DHT22;12205;50.600;4.608;2023-09-19T07:24:49;15.20;99.90
23991;DHT22;12205;50.600;4.608;2023-09-19T07:27:16;15.20;99.90
23991;DHT22;12205;50.600;4.608;2023-09-19T07:29:44;15.10;99.90
23991;DHT22;12205;50.600;4.608;2023-09-19T07:32:11;15.20;99.90
23991;DHT22;12205;50.600;4.608;2023-09-19T07:34:39;15.20;99.90
23991;DHT22;12205;50.600;4.608;2023-09-19T07:37:06;15.20;99.90
23991;DHT22;12205;50.600;4.608;2023-09-19T07:39:33;15.30;99.90
23991;DHT22;12205;50.600;4.608;2023-09-19T07:42:00;15.40;99.90
23991;DHT22;12205;50.600;4.608;2023-09-19T07:44:27;15.40;99.90
23991;DHT22;12205;50.600;4.608;2023-09-19T07:46:55;15.50;99.90
23991;DHT22;12205;50.600;4.608;2023-09-19T07:49:22;15.60;99.90
23991;DHT22;12205;50.600;4.608;2023-09-19T07:51:49;15.60;99.90
23991;DHT22;12205;50.600;4.608;2023-09-19T07:54:18;15.70;99.90
23991;DHT22;12205;50.600;4.608;2023-09-19T07:56:46;15.80;99.90
23991;DHT22;12205;50.600;4.608;2023-09-19T07:59:13;15.80;99.90
23991;DHT22;12205;50.600;4.608;2023-09-19T08:01:40;15.90;99.90
23991;DHT22;12205;50.600;4.608;2023-09-19T08:04:08;15.90;99.90
23991;DHT22;12205;50.600;4.608;2023-09-19T08:06:35;16.00;99.90
23991;DHT22;12205;50.600;4.608;2023-09-19T08:09:03;16.00;99.90
23991;DHT22;12205;50.600;4.608;2023-09-19T08:11:33;16.00;99.90
23991;DHT22;12205;50.600;4.608;2023-09-19T08:14:00;16.10;99.90
23991;DHT22;12205;50.600;4.608;2023-09-19T08:16:27;16.20;99.90
23991;DHT22;12205;50.600;4.608;2023-09-19T08:18:54;16.20;99.90
23991;DHT22;12205;50.600;4.608;2023-09-19T08:21:23;16.30;99.90
23991;DHT22;12205;50.600;4.608;2023-09-19T08:23:51;16.30;99.90
23991;DHT22;12205;50.600;4.608;2023-09-19T08:26:18;16.40;99.90
23991;DHT22;12205;50.600;4.608;2023-09-19T08:28:45;16.50;99.90
23991;DHT22;12205;50.600;4.608;2023-09-19T08:31:13;16.60;99.90
23991;DHT22;12205;50.600;4.608;2023-09-19T08:33:42;16.60;99.90
23991;DHT22;12205;50.600;4.608;2023-09-19T08:36:10;16.60;99.90
23991;DHT22;12205;50.600;4.608;2023-09-19T08:38:38;16.50;99.90
23991;DHT22;12205;50.600;4.608;2023-09-19T08:41:06;16.50;99.90
23991;DHT22;12205;50.600;4.608;2023-09-19T08:43:34;16.50;99.90
23991;DHT22;12205;50.600;4.608;2023-09-19T08:46:08;16.50;99.90
23991;DHT22;12205;50.600;4.608;2023-09-19T08:48:39;16.50;99.90
23991;DHT22;12205;50.600;4.608;2023-09-19T08:51:16;16.60;99.90
23991;DHT22;12205;50.600;4.608;2023-09-19T08:53:51;16.70;99.90
23991;DHT22;12205;50.600;4.608;2023-09-19T08:56:19;16.70;99.90
23991;DHT22;12205;50.600;4.608;2023-09-19T08:58:50;16.70;99.90
23991;DHT22;12205;50.600;4.608;2023-09-19T09:01:19;16.80;99.90
23991;DHT22;12205;50.600;4.608;2023-09-19T09:03:51;16.80;99.90
23991;DHT22;12205;50.600;4.608;2023-09-19T09:06:19;16.80;99.90
23991;DHT22;12205;50.600;4.608;2023-09-19T09:08:48;16.90;99.90
23991;DHT22;12205;50.600;4.608;2023-09-19T09:11:15;17.00;99.90
23991;DHT22;12205;50.600;4.608;2023-09-19T09:13:44;17.10;99.90
23991;DHT22;12205;50.600;4.608;2023-09-19T09:16:11;17.10;99.90
23991;DHT22;12205;50.600;4.608;2023-09-19T09:18:39;17.20;99.90
23991;DHT22;12205;50.600;4.608;2023-09-19T09:21:06;17.30;99.90
23991;DHT22;12205;50.600;4.608;2023-09-19T09:23:33;17.40;99.90
23991;DHT22;12205;50.600;4.608;2023-09-19T09:26:02;17.40;99.90
23991;DHT22;12205;50.600;4.608;2023-09-19T09:28:31;17.60;99.90
23991;DHT22;12205;50.600;4.608;2023-09-19T09:30:59;17.60;99.90
23991;DHT22;12205;50.600;4.608;2023-09-19T09:33:29;17.70;99.90
23991;DHT22;12205;50.600;4.608;2023-09-19T09:35:57;17.80;99.90
23991;DHT22;12205;50.600;4.608;2023-09-19T09:38:27;17.90;99.90
23991;DHT22;12205;50.600;4.608;2023-09-19T09:40:57;18.00;99.90
23991;DHT22;12205;50.600;4.608;2023-09-19T09:43:34;18.10;99.90
23991;DHT22;12205;50.600;4.608;2023-09-19T09:46:15;18.10;99.90
23991;DHT22;12205;50.600;4.608;2023-09-19T09:49:02;18.20;99.90
23991;DHT22;12205;50.600;4.608;2023-09-19T09:51:43;18.20;99.90
23991;DHT22;12205;50.600;4.608;2023-09-19T09:54:13;18.20;99.90
23991;DHT22;12205;50.600;4.608;2023-09-19T09:56:57;18.40;99.90
23991;DHT22;12205;50.600;4.608;2023-09-19T09:59:46;18.50;99.90
23991;DHT22;12205;50.600;4.608;2023-09-19T10:02:14;18.70;99.90
23991;DHT22;12205;50.600;4.608;2023-09-19T10:04:46;18.70;99.90
23991;DHT22;12205;50.600;4.608;2023-09-19T10:07:25;18.80;99.90
23991;DHT22;12205;50.600;4.608;2023-09-19T10:09:57;18.80;99.90
23991;DHT22;12205;50.600;4.608;2023-09-19T10:12:32;18.90;99.90
23991;DHT22;12205;50.600;4.608;2023-09-19T10:15:02;18.90;99.90
23991;DHT22;12205;50.600;4.608;2023-09-19T10:17:32;19.00;99.90
23991;DHT22;12205;50.600;4.608;2023-09-19T10:20:01;18.80;99.90
23991;DHT22;12205;50.600;4.608;2023-09-19T10:22:36;18.80;99.90
23991;DHT22;12205;50.600;4.608;2023-09-19T10:25:05;18.60;99.90
23991;DHT22;12205;50.600;4.608;2023-09-19T10:27:33;18.60;99.90
23991;DHT22;12205;50.600;4.608;2023-09-19T10:30:06;18.60;99.90
23991;DHT22;12205;50.600;4.608;2023-09-19T10:32:35;18.70;99.90
23991;DHT22;12205;50.600;4.608;2023-09-19T10:35:05;18.60;99.90
23991;DHT22;12205;50.600;4.608;2023-09-19T10:37:34;18.60;99.90
23991;DHT22;12205;50.600;4.608;2023-09-19T10:40:04;18.70;99.90
23991;DHT22;12205;50.600;4.608;2023-09-19T10:42:38;18.70;99.90
23991;DHT22;12205;50.600;4.608;2023-09-19T10:45:09;18.70;99.90
23991;DHT22;12205;50.600;4.608;2023-09-19T10:47:39;18.60;99.90
23991;DHT22;12205;50.600;4.608;2023-09-19T10:50:06;18.70;99.90
23991;DHT22;12205;50.600;4.608;2023-09-19T10:52:40;18.80;99.90
23991;DHT22;12205;50.600;4.608;2023-09-19T10:55:09;18.90;99.90
23991;DHT22;12205;50.600;4.608;2023-09-19T10:57:44;19.00;99.90
23991;DHT22;12205;50.600;4.608;2023-09-19T11:00:14;19.10;99.90
23991;DHT22;12205;50.600;4.608;2023-09-19T11:03:16;19.20;99.90
23991;DHT22;12205;50.600;4.608;2023-09-19T11:06:01;19.30;99.90
23991;DHT22;12205;50.600;4.608;2023-09-19T11:08:31;19.50;99.90
23991;DHT22;12205;50.600;4.608;2023-09-19T11:10:59;19.60;99.90
23991;DHT22;12205;50.600;4.608;2023-09-19T11:13:30;19.60;99.90
23991;DHT22;12205;50.600;4.608;2023-09-19T11:16:05;19.70;99.90
23991;DHT22;12205;50.600;4.608;2023-09-19T11:18:51;19.60;99.90
23991;DHT22;12205;50.600;4.608;2023-09-19T11:21:41;19.50;99.90
23991;DHT22;12205;50.600;4.608;2023-09-19T11:24:38;19.60;99.90
23991;DHT22;12205;50.600;4.608;2023-09-19T11:27:14;19.70;99.90
23991;DHT22;12205;50.600;4.608;2023-09-19T11:29:43;19.70;99.90
23991;DHT22;12205;50.600;4.608;2023-09-19T11:32:12;19.60;99.90
23991;DHT22;12205;50.600;4.608;2023-09-19T11:34:46;19.50;99.90
23991;DHT22;12205;50.600;4.608;2023-09-19T11:40:52;19.50;99.90
23991;DHT22;12205;50.600;4.608;2023-09-19T11:43:36;19.50;99.90
23991;DHT22;12205;50.600;4.608;2023-09-19T11:46:08;19.50;99.90
23991;DHT22;12205;50.600;4.608;2023-09-19T11:48:39;19.60;99.90
23991;DHT22;12205;50.600;4.608;2023-09-19T11:51:18;19.60;99.90
23991;DHT22;12205;50.600;4.608;2023-09-19T11:53:54;19.80;99.90
23991;DHT22;12205;50.600;4.608;2023-09-19T11:56:25;19.90;99.90
23991;DHT22;12205;50.600;4.608;2023-09-19T11:58:55;20.20;99.90
23991;DHT22;12205;50.600;4.608;2023-09-19T12:01:25;20.50;99.90
23991;DHT22;12205;50.600;4.608;2023-09-19T12:03:58;20.90;99.90
23991;DHT22;12205;50.600;4.608;2023-09-19T12:06:26;21.40;99.90
23991;DHT22;12205;50.600;4.608;2023-09-19T12:08:53;21.20;99.90
23991;DHT22;12205;50.600;4.608;2023-09-19T12:11:21;21.30;99.90
23991;DHT22;12205;50.600;4.608;2023-09-19T12:13:50;21.50;99.90
23991;DHT22;12205;50.600;4.608;2023-09-19T12:16:19;21.50;99.90
23991;DHT22;12205;50.600;4.608;2023-09-19T12:18:49;21.80;99.90
23991;DHT22;12205;50.600;4.608;2023-09-19T12:21:26;21.80;99.90
23991;DHT22;12205;50.600;4.608;2023-09-19T12:24:11;22.10;99.90
23991;DHT22;12205;50.600;4.608;2023-09-19T12:26:41;22.20;99.90
23991;DHT22;12205;50.600;4.608;2023-09-19T12:29:13;21.90;99.90
23991;DHT22;12205;50.600;4.608;2023-09-19T12:31:51;21.50;99.90
23991;DHT22;12205;50.600;4.608;2023-09-19T12:34:21;21.40;99.90
23991;DHT22;12205;50.600;4.608;2023-09-19T12:37:03;21.00;99.90
23991;DHT22;12205;50.600;4.608;2023-09-19T12:39:31;20.50;99.90
23991;DHT22;12205;50.600;4.608;2023-09-19T12:41:58;20.30;99.90
23991;DHT22;12205;50.600;4.608;2023-09-19T12:44:25;20.10;99.90
23991;DHT22;12205;50.600;4.608;2023-09-19T12:46:53;20.00;99.90
23991;DHT22;12205;50.600;4.608;2023-09-19T12:49:20;20.00;99.90
23991;DHT22;12205;50.600;4.608;2023-09-19T12:51:54;20.00;99.90
23991;DHT22;12205;50.600;4.608;2023-09-19T12:54:22;19.90;99.90
23991;DHT22;12205;50.600;4.608;2023-09-19T12:56:50;20.00;99.90
23991;DHT22;12205;50.600;4.608;2023-09-19T12:59:29;20.10;99.90
23991;DHT22;12205;50.600;4.608;2023-09-19T13:02:04;20.10;99.90
23991;DHT22;12205;50.600;4.608;2023-09-19T13:04:33;20.10;99.90
23991;DHT22;12205;50.600;4.608;2023-09-19T13:07:07;20.10;99.90
23991;DHT22;12205;50.600;4.608;2023-09-19T13:09:34;20.10;99.90
23991;DHT22;12205;50.600;4.608;2023-09-19T13:12:01;20.20;99.90
23991;DHT22;12205;50.600;4.608;2023-09-19T13:14:30;20.30;99.90
23991;DHT22;12205;50.600;4.608;2023-09-19T13:17:01;20.40;99.90
23991;DHT22;12205;50.600;4.608;2023-09-19T13:19:42;20.50;99.90
23991;DHT22;12205;50.600;4.608;2023-09-19T13:22:37;20.60;99.90
23991;DHT22;12205;50.600;4.608;2023-09-19T13:25:07;20.70;99.90
23991;DHT22;12205;50.600;4.608;2023-09-19T13:27:38;21.00;99.90
23991;DHT22;12205;50.600;4.608;2023-09-19T13:30:06;20.90;99.90
23991;DHT22;12205;50.600;4.608;2023-09-19T13:32:33;20.60;99.90
23991;DHT22;12205;50.600;4.608;2023-09-19T13:35:00;20.60;99.90
23991;DHT22;12205;50.600;4.608;2023-09-19T13:37:27;20.70;99.90
23991;DHT22;12205;50.600;4.608;2023-09-19T13:39:55;20.60;99.90
23991;DHT22;12205;50.600;4.608;2023-09-19T13:42:24;20.60;99.90
23991;DHT22;12205;50.600;4.608;2023-09-19T13:44:51;20.50;99.90
23991;DHT22;12205;50.600;4.608;2023-09-19T13:47:18;20.40;99.90
23991;DHT22;12205;50.600;4.608;2023-09-19T13:49:50;20.10;99.90
23991;DHT22;12205;50.600;4.608;2023-09-19T13:52:18;20.00;99.90
23991;DHT22;12205;50.600;4.608;2023-09-19T13:54:45;20.00;99.90
23991;DHT22;12205;50.600;4.608;2023-09-19T13:57:13;20.00;99.90
23991;DHT22;12205;50.600;4.608;2023-09-19T13:59:40;19.90;99.90
23991;DHT22;12205;50.600;4.608;2023-09-19T14:02:07;20.00;99.90
23991;DHT22;12205;50.600;4.608;2023-09-19T14:04:34;20.00;99.90
23991;DHT22;12205;50.600;4.608;2023-09-19T14:07:01;20.10;99.90
23991;DHT22;12205;50.600;4.608;2023-09-19T14:09:29;19.90;99.90
23991;DHT22;12205;50.600;4.608;2023-09-19T14:11:56;20.00;99.90
23991;DHT22;12205;50.600;4.608;2023-09-19T14:14:24;20.00;99.90
23991;DHT22;12205;50.600;4.608;2023-09-19T14:16:51;20.00;99.90
23991;DHT22;12205;50.600;4.608;2023-09-19T14:19:18;19.90;99.90
23991;DHT22;12205;50.600;4.608;2023-09-19T14:21:45;19.90;99.90
23991;DHT22;12205;50.600;4.608;2023-09-19T14:24:16;19.80;99.90
23991;DHT22;12205;50.600;4.608;2023-09-19T14:26:43;19.90;99.90
23991;DHT22;12205;50.600;4.608;2023-09-19T14:29:10;19.90;99.90
23991;DHT22;12205;50.600;4.608;2023-09-19T14:31:40;19.80;99.90
23991;DHT22;12205;50.600;4.608;2023-09-19T14:34:07;19.80;99.90
23991;DHT22;12205;50.600;4.608;2023-09-19T14:36:36;19.80;99.90
23991;DHT22;12205;50.600;4.608;2023-09-19T14:39:05;19.80;99.90
23991;DHT22;12205;50.600;4.608;2023-09-19T14:41:34;19.80;99.90
23991;DHT22;12205;50.600;4.608;2023-09-19T14:44:02;19.80;99.90
23991;DHT22;12205;50.600;4.608;2023-09-19T14:46:30;19.90;99.90
23991;DHT22;12205;50.600;4.608;2023-09-19T14:48:59;20.10;99.90
23991;DHT22;12205;50.600;4.608;2023-09-19T14:51:29;20.30;99.90
23991;DHT22;12205;50.600;4.608;2023-09-19T14:53:56;20.40;99.90
23991;DHT22;12205;50.600;4.608;2023-09-19T14:56:23;20.40;99.90
23991;DHT22;12205;50.600;4.608;2023-09-19T14:58:51;20.40;99.90
23991;DHT22;12205;50.600;4.608;2023-09-19T15:01:18;20.40;99.90
23991;DHT22;12205;50.600;4.608;2023-09-19T15:03:45;20.60;99.90
23991;DHT22;12205;50.600;4.608;2023-09-19T15:06:15;20.90;99.90
23991;DHT22;12205;50.600;4.608;2023-09-19T15:08:46;21.20;99.90
23991;DHT22;12205;50.600;4.608;2023-09-19T15:11:14;21.50;99.90
23991;DHT22;12205;50.600;4.608;2023-09-19T15:13:43;21.70;99.90
23991;DHT22;12205;50.600;4.608;2023-09-19T15:16:10;21.70;99.90
23991;DHT22;12205;50.600;4.608;2023-09-19T15:18:40;22.30;99.90
23991;DHT22;12205;50.600;4.608;2023-09-19T15:21:09;22.40;99.90
23991;DHT22;12205;50.600;4.608;2023-09-19T15:23:38;22.20;99.90
23991;DHT22;12205;50.600;4.608;2023-09-19T15:26:06;22.30;99.90
23991;DHT22;12205;50.600;4.608;2023-09-19T15:28:34;22.20;99.90
23991;DHT22;12205;50.600;4.608;2023-09-19T15:31:01;21.80;99.90
23991;DHT22;12205;50.600;4.608;2023-09-19T15:33:30;21.20;99.90
23991;DHT22;12205;50.600;4.608;2023-09-19T15:36:01;20.90;99.90
23991;DHT22;12205;50.600;4.608;2023-09-19T15:38:29;20.60;99.90
23991;DHT22;12205;50.600;4.608;2023-09-19T15:40:59;20.40;99.90
23991;DHT22;12205;50.600;4.608;2023-09-19T15:43:26;20.40;99.90
23991;DHT22;12205;50.600;4.608;2023-09-19T15:45:53;20.50;99.90
23991;DHT22;12205;50.600;4.608;2023-09-19T15:48:20;20.50;99.90
23991;DHT22;12205;50.600;4.608;2023-09-19T15:50:47;20.40;99.90